This is the latest recevied weather packets stored in our database for station/object K3BAK-13. If no packets are shown the sender has not sent any weather packets the latest 10 day(s).
| Time | Temp. | Humidity | Pressure | Rain* | Wind** | Luminosity | Snow |
|---|---|---|---|---|---|---|---|
| 1777863361 | 9.44° C | 57% | 1014.5 hPa | 0 mm | - | - | - |
| 1777860963 | 10° C | 54% | 1014.8 hPa | 0 mm | - | - | - |
| 1777859159 | 10.56° C | 54% | 1014.7 hPa | 0 mm | - | - | - |
| 1777857958 | 10.56° C | 53% | 1014.6 hPa | 0 mm | - | - | - |
| 1777856758 | 11.67° C | 49% | 1014.5 hPa | 0 mm | - | - | - |
| 1777854959 | 12.22° C | 46% | 1014.4 hPa | 0 mm | - | - | - |
| 1777851358 | 13.89° C | 42% | 1014.5 hPa | 0 mm | - | - | - |
| 1777851072 | 13.89° C | 41% | 1014.5 hPa | 0 mm | - | - | - |
| 1777850169 | 14.44° C | 41% | 1014.6 hPa | 0 mm | - | - | - |
| 1777849269 | 15° C | 40% | 1014.6 hPa | 0 mm | - | - | - |
| 1777847759 | 15° C | 40% | 1014.7 hPa | 0 mm | - | - | - |
| 1777846572 | 15° C | 38% | 1015 hPa | 0 mm | - | - | - |
| 1777846259 | 15° C | 39% | 1014.9 hPa | 0 mm | - | - | - |
| 1777845058 | 15° C | 40% | 1015 hPa | 0 mm | - | - | - |
| 1777844768 | 15.56° C | 40% | 1014.8 hPa | 0 mm | - | - | - |
| 1777843259 | 15° C | 40% | 1014.7 hPa | 0 mm | - | - | - |
| 1777842959 | 15° C | 38% | 1014.8 hPa | 0 mm | - | - | - |
| 1777841165 | 14.44° C | 41% | 1015.2 hPa | 0 mm | - | - | - |
| 1777840558 | 14.44° C | 42% | 1015.2 hPa | 0 mm | - | - | - |
| 1777840261 | 14.44° C | 41% | 1015.3 hPa | 0 mm | - | - | - |
| 1777839659 | 14.44° C | 41% | 1015.4 hPa | 0 mm | - | - | - |
| 1777838463 | 15° C | 40% | 1015.4 hPa | 0 mm | - | - | - |
| 1777838159 | 15° C | 41% | 1015.5 hPa | 0 mm | - | - | - |
| 1777837262 | 13.89° C | 41% | 1015.9 hPa | 0 mm | - | - | - |
| 1777835458 | 13.89° C | 40% | 1016 hPa | 0 mm | - | - | - |
* Rain latest hour (hover to see other rain measurements)
** Current wind speed in m/s (hover to see current wind gust speed)